Kenosha Regional Airport
KENW : rendu visible

Aérodrome :











RETROUVEZ-NOUS SUR...

 
LOGIN :

S'inscrire | Disclaimer

   EN    FR    IT 

 









Légende :    VFR   VFR Marginal   IFR   IFR Intensif   IFR Très Intensif
Visi : 
Plafond : 
>= 8 km
>= 3000ft
5 à 8 km
1000 à 3000 ft
1500m à 5 km
500 à 1000 ft
800 à 1500m
200 à 500 ft
< 800m
< 200 ft
Symboles :   Orages  Brouillard  Fortes neiges  Fortes précipitations  Vent > 20 kt






- Altitude de l'aérodrome : 742 ft


KENW - Kenosha Regional

DERNIER METAR :
  • 290317Z AUTO 14016G24KT 1/4SM FG VV002 11/09 A2946 RMK AO2 T01060094

METARs EXPIRÉS :
  • 290253Z AUTO 13009G21KT 3/4SM BR VV002 11/09 A2949 RMK AO2 RAE15 SLP988 P0000 60011 T01110094 56047
  • 290224Z AUTO 14019G25KT 1 3/4SM BR OVC002 12/10 A2950 RMK AO2 RAE15 P0000 T01170100
  • 290153Z 12015G27KT 7SM -RA OVC004 12/10 A2953 RMK AO2 PK WND 15030/0120 RAE09B51 SLP002 P0002 T01170100
  • 290110Z 11016KT 3SM BR OVC002 11/09 A2952 RMK AO2 LTG DSNT W AND NW RAE09 PRESFR P0002 T01060089
  • 290053Z 12007KT 2 1/2SM RA BR OVC002 09/07 A2956 RMK AO2 SLP013 P0009 T00890072

TAF KENW
Valide du 29 à 03h jusqu'au 30 à 00h UTC


290231Z 2903/2924 15012G23KT 2SM -SHRA BR VCTS OVC004CB WS020/18045KT
FM290500 19008KT P6SM BKN021 WS020/22045KT
FM290700 21010KT P6SM SCT100
FM291200 22016G24KT P6SM VCSH OVC015
FM291700 24020G33KT P6SM VCSH OVC015



MET'MAP, la Météo Aéronautique d'un coup d'oeil ! - Copyright ORBIFLY Décembre 2007 - Disclaimer

ORBIFLY MET'MAP TEAM :

Programmation & Développement : Alexandra Zaïnal
Sur une idée originale de : Baudouin d'Aumeries
Assistance à la programmation : Marc-Olivier Méhu
Soutien technique & logistique : Manuel Goepfert

Contact : metmap@orbifly.com




SOURCES & CREDITS :

   NOAA       Earth
Advisory